Aérodrome :
LOGIN :

S'inscrire | Disclaimer

   EN    FR    IT 

 










Légende :    VFR   VFR Marginal   IFR   IFR Intensif   IFR Très Intensif
Visi : 
Plafond : 
>= 8 km
>= 3000ft
5 à 8 km
1000 à 3000 ft
1500m à 5 km
500 à 1000 ft
800 à 1500m
200 à 500 ft
< 800m
< 200 ft
Symboles :   Orages  Brouillard  Fortes neiges  Fortes précipitations  Vent > 20 kt
SIGMETs :   Divers  Orages  Givrage  Turbulence  Onde Orograph.  Cendres Volcan.






- Altitude de l'aérodrome : 1568 ft


ETSB - Büchel AB

DERNIER METAR :
  • 030920Z 16004KT 9999 FEW060 SCT120 BKN180 22/07 Q1007 BLU BLU

METARs EXPIRÉS :
  • 030820Z 25002KT 9999 FEW050 SCT100 BKN180 21/06 Q1007 BLU BLU
  • 030720Z 10003KT 9999 FEW050 SCT100 BKN200 20/06 Q1008 BLU+BLU+

TAF TAF ETSB
Valide du 03 à 08h jusqu'au 03 à 17h UTC


030720Z 0308/0317 22005KT 9999 NSW FEW060 SCT120 BKN210
TEMPO 0310/0317 28010G20KT 4500 SHRA BKN040CB
PROB30 0310/0317 VRB15G30KT 4000 TSRA SCT020 BKN040CB BY ETGL



MET'MAP, la Météo Aéronautique d'un coup d'oeil ! - Copyright ORBIFLY Décembre 2007 - Disclaimer

ORBIFLY MET'MAP TEAM :

Programmation & Développement : Alexandra Zaïnal
Sur une idée originale de : Baudouin d'Aumeries
Assistance à la programmation : Marc-Olivier Méhu
Soutien technique & logistique : Manuel Goepfert

Contact : metmap@orbifly.com




SOURCES & CREDITS :

   NOAA